Flight Track Log - Related Links

Times and Time Zones

All times are in EDT time to prevent confusion due to time zone crossing. See the AWE1940 flight status page for this flight to view local times or setup timezone preferences in your user account.

Time Position Orientation Groundspeed Altitude Reporting Facility
EDT Latitude Longitude Course Direction KTS MPH feet Rate Location/Type
Wed 22:53:11 35.2283 -80.9394 72° East 151 174 1,500  Level Atlanta Center
Wed 22:54:24 35.2864 -80.9219 14° North 210 242 3,500 2,143 Climbing Atlanta Center
Wed 22:55:00 35.1116 -80.6256 29° Northeast  Level FlightAware
Wed 22:55:31 35.3156 -80.8317 68° East 270 311 6,500  Level Atlanta Center
Wed 22:56:00 35.2080 -80.5609 30° Northeast  Level FlightAware
Wed 22:56:32 35.3297 -80.7419 79° East 274 315 9,500  Level Atlanta Center
Wed 22:57:00 35.3030 -80.4931 30° Northeast  Level FlightAware
Wed 22:57:27 35.3458 -80.6472 78° East 312 359 11,200  Level Atlanta Center
Wed 22:58:00 35.3530 -80.3921 72° East  Level FlightAware
Wed 22:58:28 35.3658 -80.5344 78° East 376 433 13,800  Level Atlanta Center
Wed 22:59:28 35.3853 -80.4139 79° East 361 415 16,000 2,000 Climbing Atlanta Center
Wed 23:00:28 35.4047 -80.3008 78° East 361 415 17,800 1,853 Climbing Atlanta Center
Wed 23:02:39 35.4625 -80.0242 76° East 410 472 21,900 1,813 Climbing Washington Center
Wed 23:03:40 35.4967 -79.8908 72° East 410 472 23,600 1,636 Climbing Washington Center
Wed 23:04:40 35.5350 -79.7525 71° East 416 479 25,200 1,576 Climbing Washington Center
Wed 23:05:38 35.5689 -79.6139 73° East 416 479 26,700 1,412 Climbing Washington Center
Wed 23:06:39 35.6075 -79.4575 73° East 422 486 28,000 1,150 Climbing Washington Center
Wed 23:07:38 35.6578 -79.3192 66° East 427 491 29,000 958 Climbing Washington Center
Wed 23:08:38 35.7161 -79.1811 62° Northeast 444 511 29,900 893 Climbing Washington Center
Wed 23:09:39 35.7747 -79.0353 64° Northeast 457 526 30,800 950 Climbing Washington Center
Wed 23:10:38 35.8331 -78.8894 64° Northeast 463 533 31,800 1,059 Climbing Washington Center
Wed 23:11:38 35.8956 -78.7433 62° Northeast 473 544 32,900 1,100 Climbing Washington Center
Wed 23:12:38 35.9639 -78.6022 59° Northeast 473 544 34,000 1,091 Climbing Washington Center
Wed 23:13:39 36.0319 -78.4636 59° Northeast 473 544 35,100 1,000 Climbing Washington Center
Wed 23:14:38 36.1000 -78.3219 59° Northeast 473 544 36,000 908 Climbing Washington Center
Wed 23:15:38 36.1656 -78.1803 60° Northeast 473 544 36,900 492 Climbing Washington Center
Wed 23:16:40 36.2356 -78.0383 59° Northeast 478 550 37,000 50 Climbing Washington Center
Wed 23:17:38 36.3008 -77.8986 60° Northeast 478 550 37,000  Level Washington Center
Wed 23:18:40 36.3681 -77.7589 59° Northeast 478 550 37,000  Level Washington Center
Wed 23:19:39 36.4222 -77.6467 59° Northeast 478 550 37,000  Level Washington Center
Wed 23:20:38 36.4894 -77.4933 61° Northeast 473 544 37,000  Level Washington Center
Wed 23:21:38 36.5561 -77.3528 59° Northeast 468 539 37,000  Level Washington Center
Wed 23:22:39 36.6208 -77.2119 60° Northeast 468 539 37,000  Level Washington Center
Wed 23:23:39 36.6894 -77.0736 58° Northeast 468 539 37,000  Level Washington Center
Wed 23:24:40 36.7742 -76.9583 47° Northeast 456 525 37,000  Level Washington Center
Wed 23:25:40 36.8753 -76.8642 37° Northeast 443 510 37,000 -305 Level Washington Center
Wed 23:26:38 36.9742 -76.7775 35° Northeast 438 504 36,400 -2,085 Descending Washington Center
Wed 23:27:38 37.0836 -76.6775 36° Northeast 438 504 32,900 -2,557 Descending Washington Center
Wed 23:28:40 37.1825 -76.5850 37° Northeast 438 504 31,200 -934 Descending Washington Center
Wed 23:29:40 37.2792 -76.5003 35° Northeast 433 498 31,000 -99 Descending Washington Center
Wed 23:30:41 37.3778 -76.4100 36° Northeast 433 498 31,000  Level Washington Center
Wed 23:31:39 37.4744 -76.3219 36° Northeast 428 493 31,000  Level Washington Center
Wed 23:32:39 37.5686 -76.2364 36° Northeast 428 493 31,000  Level Washington Center
Wed 23:33:40 37.6692 -76.1533 33° Northeast 428 493 31,000  Level Washington Center
Wed 23:34:41 37.7636 -76.0619 37° Northeast 428 493 31,000  Level Washington Center
Wed 23:35:38 37.8536 -75.9706 39° Northeast 428 493 31,000  Level Washington Center
Wed 23:36:40 37.9414 -75.8892 36° Northeast 423 487 31,000 -50 Level Washington Center
Wed 23:37:38 38.0375 -75.8053 34° Northeast 423 487 30,900  Descending Washington Center
Wed 23:38:39 38.1272 -75.7131 39° Northeast 423 487 31,000 50 Climbing Washington Center
Wed 23:39:39 38.2231 -75.6233 36° Northeast 418 481 31,000  Level Washington Center
Wed 23:40:38 38.3275 -75.5336 34° Northeast 418 481 31,000  Level Washington Center
Wed 23:41:39 38.4253 -75.4619 30° Northeast 407 468 31,000  Level Washington Center
Wed 23:42:39 38.5253 -75.3875 30° Northeast 407 468 31,000 -50 Level Washington Center
Wed 23:43:38 38.6231 -75.3153 30° Northeast 407 468 30,900  Descending Washington Center
Wed 23:44:38 38.7208 -75.2431 30° Northeast 402 463 31,000 50 Climbing Washington Center
Wed 23:45:38 38.8228 -75.1681 30° Northeast 402 463 31,000  Level Washington Center
Wed 23:46:38 38.9206 -75.0928 31° Northeast 402 463 31,000  Level Washington Center
Wed 23:47:39 39.0203 -75.0172 30° Northeast 402 463 31,000  Level Washington Center
Wed 23:48:38 39.1178 -74.9414 31° Northeast 402 463 31,000  Level Washington Center
Wed 23:50:52 39.3261 -74.7858 30° Northeast 414 476 31,000  Level New Center
Wed 23:51:54 39.4203 -74.7106 32° Northeast 409 471 31,000  Level New Center
Wed 23:52:51 39.5272 -74.6306 30° Northeast 403 464 31,000  Level New Center
Wed 23:53:54 39.6292 -74.5714 24° Northeast 403 464 31,000  Level New Center
Wed 23:54:53 39.7386 -74.5422 12° North 397 457 31,000  Level New Center
Wed 23:55:53 39.8519 -74.5186 North 397 457 31,000  Level New Center
Wed 23:56:53 39.9611 -74.4919 11° North 402 463 31,000  Level New Center
Wed 23:57:52 40.0661 -74.4622 12° North 408 470 31,000  Level New Center
Wed 23:58:52 40.1775 -74.4383 North 408 470 31,000  Level New Center
Thu 00:00:50 40.3933 -74.3856 11° North 406 467 31,000  Level Boston Center
Thu 00:01:50 40.5064 -74.3589 10° North 406 467 31,000  Level Boston Center
Thu 00:02:50 40.6172 -74.3319 10° North 406 467 31,000 -50 Level Boston Center
Thu 00:03:50 40.7303 -74.3081 North 411 473 30,900  Descending Boston Center
Thu 00:04:50 40.8431 -74.2839 North 411 473 31,000 -100 Climbing Boston Center
Thu 00:05:50 40.9644 -74.2542 10° North 411 473 30,700 -600 Descending Boston Center
Thu 00:06:50 41.0775 -74.2244 11° North 411 473 29,800 -950 Descending Boston Center
Thu 00:07:50 41.1883 -74.1972 10° North 411 473 28,800 -1,000 Descending Boston Center
Thu 00:08:50 41.2992 -74.1669 12° North 411 473 27,800 -1,200 Descending Boston Center
Thu 00:09:50 41.4081 -74.1394 11° North 406 467 26,400 -1,550 Descending Boston Center
Thu 00:10:50 41.5169 -74.1119 11° North 406 467 24,700 -1,700 Descending Boston Center
Thu 00:11:50 41.6236 -74.0869 10° North 400 460 23,000 -2,000 Descending Boston Center
Thu 00:12:50 41.7239 -74.0617 11° North 386 444 20,700 -2,250 Descending Boston Center
Thu 00:13:50 41.8158 -74.0417 North 364 419 18,500 -1,717 Descending Boston Center
Thu 00:15:00 41.9420 -74.0082 14° North  Level FlightAware
Thu 00:18:29 42.2489 -73.9294 10° North 328 377 11,000  Level Boston Center
Thu 00:19:36 42.3531 -73.9319 359° North 318 366 10,400 -850 Descending Boston Center
Thu 00:20:36 42.4322 -73.9422 355° North 281 323 9,200 -1,388 Descending Boston Center
Thu 00:21:37 42.5092 -73.9497 356° North 277 319 7,600 -1,623 Descending Boston Center
Thu 00:22:00 42.6894 -73.8110 10° North  Level FlightAware
Thu 00:22:38 42.5839 -73.9628 353° North 276 318 5,900  Level Boston Center
Thu 00:23:00 42.7333 -73.8000 10° North  Level FlightAware
Thu 00:23:38 42.6611 -73.9592 North 267 307 4,200  Level Boston Center
Thu 00:24:39 42.7300 -73.9522 North 250 288 3,300 -545 Descending Boston Center
Thu 00:25:39 42.7928 -73.9425 North 199 229 3,100 -298 Descending Boston Center
Thu 00:26:40 42.8347 -73.9094 30° Northeast 180 207 2,700 -443 Descending Boston Center
Thu 00:27:41 42.8439 -73.8447 79° East 174 200 2,200 -492 Descending Boston Center

Login

Don't have an account? Register now (free) for customized features, flight alerts, and more!